sensor_id;sensor_type;location;lat;lon;timestamp;temperature;humidity
6536;DHT22;77310;52.08014426;5.40977955;2024-03-17T00:00:38;9.70;88.80
6536;DHT22;77310;52.08014426;5.40977955;2024-03-17T00:03:05;9.70;88.90
6536;DHT22;77310;52.08014426;5.40977955;2024-03-17T00:05:34;9.40;88.30
6536;DHT22;77310;52.08014426;5.40977955;2024-03-17T00:08:01;9.60;88.20
6536;DHT22;77310;52.08014426;5.40977955;2024-03-17T00:10:30;9.60;88.10
6536;DHT22;77310;52.08014426;5.40977955;2024-03-17T00:12:56;9.70;88.30
6536;DHT22;77310;52.08014426;5.40977955;2024-03-17T00:15:24;9.60;88.60
6536;DHT22;77310;52.08014426;5.40977955;2024-03-17T00:17:50;9.70;88.90
6536;DHT22;77310;52.08014426;5.40977955;2024-03-17T00:20:17;9.60;89.20
6536;DHT22;77310;52.08014426;5.40977955;2024-03-17T00:22:46;9.60;89.30
6536;DHT22;77310;52.08014426;5.40977955;2024-03-17T00:25:15;9.60;89.50
6536;DHT22;77310;52.08014426;5.40977955;2024-03-17T00:27:42;9.60;89.50
6536;DHT22;77310;52.08014426;5.40977955;2024-03-17T00:30:11;9.60;89.50
6536;DHT22;77310;52.08014426;5.40977955;2024-03-17T00:32:39;9.60;89.50
6536;DHT22;77310;52.08014426;5.40977955;2024-03-17T00:35:06;9.60;89.40
6536;DHT22;77310;52.08014426;5.40977955;2024-03-17T00:37:34;9.60;89.40
6536;DHT22;77310;52.08014426;5.40977955;2024-03-17T00:40:00;9.60;89.40
6536;DHT22;77310;52.08014426;5.40977955;2024-03-17T00:42:29;9.60;89.40
6536;DHT22;77310;52.08014426;5.40977955;2024-03-17T00:44:56;9.60;89.30
6536;DHT22;77310;52.08014426;5.40977955;2024-03-17T00:47:22;9.60;89.20
6536;DHT22;77310;52.08014426;5.40977955;2024-03-17T00:49:49;8.40;88.60
6536;DHT22;77310;52.08014426;5.40977955;2024-03-17T00:52:16;9.60;89.70
6536;DHT22;77310;52.08014426;5.40977955;2024-03-17T00:54:46;9.60;89.80
6536;DHT22;77310;52.08014426;5.40977955;2024-03-17T00:57:12;9.70;90.10
6536;DHT22;77310;52.08014426;5.40977955;2024-03-17T00:59:41;9.60;90.20
6536;DHT22;77310;52.08014426;5.40977955;2024-03-17T01:02:08;9.50;90.40
6536;DHT22;77310;52.08014426;5.40977955;2024-03-17T01:04:35;9.60;90.10
6536;DHT22;77310;52.08014426;5.40977955;2024-03-17T01:07:01;9.50;89.80
6536;DHT22;77310;52.08014426;5.40977955;2024-03-17T01:09:28;9.50;89.90
6536;DHT22;77310;52.08014426;5.40977955;2024-03-17T01:11:54;9.60;89.90
6536;DHT22;77310;52.08014426;5.40977955;2024-03-17T01:14:21;9.50;89.60
6536;DHT22;77310;52.08014426;5.40977955;2024-03-17T01:16:50;9.50;89.60
6536;DHT22;77310;52.08014426;5.40977955;2024-03-17T01:19:19;9.50;90.00
6536;DHT22;77310;52.08014426;5.40977955;2024-03-17T01:21:46;9.50;89.80
6536;DHT22;77310;52.08014426;5.40977955;2024-03-17T01:24:13;9.50;90.10
6536;DHT22;77310;52.08014426;5.40977955;2024-03-17T01:26:39;9.60;90.10
6536;DHT22;77310;52.08014426;5.40977955;2024-03-17T01:29:06;9.50;90.30
6536;DHT22;77310;52.08014426;5.40977955;2024-03-17T01:31:32;9.50;90.30
6536;DHT22;77310;52.08014426;5.40977955;2024-03-17T01:34:01;9.50;90.20
6536;DHT22;77310;52.08014426;5.40977955;2024-03-17T01:36:27;9.50;90.10
6536;DHT22;77310;52.08014426;5.40977955;2024-03-17T01:38:54;9.50;90.30
6536;DHT22;77310;52.08014426;5.40977955;2024-03-17T01:41:23;9.50;90.20
6536;DHT22;77310;52.08014426;5.40977955;2024-03-17T01:43:50;9.50;90.10
6536;DHT22;77310;52.08014426;5.40977955;2024-03-17T01:46:17;9.50;89.90
6536;DHT22;77310;52.08014426;5.40977955;2024-03-17T01:48:46;9.50;90.00
6536;DHT22;77310;52.08014426;5.40977955;2024-03-17T01:51:15;9.40;90.10
6536;DHT22;77310;52.08014426;5.40977955;2024-03-17T01:53:42;9.50;90.10
6536;DHT22;77310;52.08014426;5.40977955;2024-03-17T01:56:10;9.40;90.10
6536;DHT22;77310;52.08014426;5.40977955;2024-03-17T01:58:37;9.40;90.00
6536;DHT22;77310;52.08014426;5.40977955;2024-03-17T02:01:04;9.40;89.80
6536;DHT22;77310;52.08014426;5.40977955;2024-03-17T02:03:31;9.40;89.70
6536;DHT22;77310;52.08014426;5.40977955;2024-03-17T02:05:58;9.40;89.60
6536;DHT22;77310;52.08014426;5.40977955;2024-03-17T02:08:26;9.40;89.60
6536;DHT22;77310;52.08014426;5.40977955;2024-03-17T02:10:53;10.20;89.50
6536;DHT22;77310;52.08014426;5.40977955;2024-03-17T02:13:19;9.30;90.00
6536;DHT22;77310;52.08014426;5.40977955;2024-03-17T02:15:47;9.30;90.00
6536;DHT22;77310;52.08014426;5.40977955;2024-03-17T02:18:13;9.40;90.10
6536;DHT22;77310;52.08014426;5.40977955;2024-03-17T02:20:40;9.30;90.10
6536;DHT22;77310;52.08014426;5.40977955;2024-03-17T02:23:25;9.30;90.20
6536;DHT22;77310;52.08014426;5.40977955;2024-03-17T02:25:53;9.30;90.50
6536;DHT22;77310;52.08014426;5.40977955;2024-03-17T02:28:19;9.30;90.60
6536;DHT22;77310;52.08014426;5.40977955;2024-03-17T02:30:46;9.30;90.50
6536;DHT22;77310;52.08014426;5.40977955;2024-03-17T02:33:12;9.30;90.40
6536;DHT22;77310;52.08014426;5.40977955;2024-03-17T02:35:39;9.30;90.50
6536;DHT22;77310;52.08014426;5.40977955;2024-03-17T02:38:05;9.30;90.50
6536;DHT22;77310;52.08014426;5.40977955;2024-03-17T02:40:34;9.40;90.60
6536;DHT22;77310;52.08014426;5.40977955;2024-03-17T02:43:00;9.40;90.60
6536;DHT22;77310;52.08014426;5.40977955;2024-03-17T02:45:27;9.40;90.50
6536;DHT22;77310;52.08014426;5.40977955;2024-03-17T02:47:54;9.40;90.50
6536;DHT22;77310;52.08014426;5.40977955;2024-03-17T02:50:21;9.40;90.40
6536;DHT22;77310;52.08014426;5.40977955;2024-03-17T02:52:49;9.40;90.40
6536;DHT22;77310;52.08014426;5.40977955;2024-03-17T02:55:16;9.40;90.50
6536;DHT22;77310;52.08014426;5.40977955;2024-03-17T02:57:45;9.80;90.70
6536;DHT22;77310;52.08014426;5.40977955;2024-03-17T03:00:12;9.40;90.70
6536;DHT22;77310;52.08014426;5.40977955;2024-03-17T03:02:40;9.40;90.50
6536;DHT22;77310;52.08014426;5.40977955;2024-03-17T03:05:07;9.40;90.70
6536;DHT22;77310;52.08014426;5.40977955;2024-03-17T03:07:34;9.40;90.70
6536;DHT22;77310;52.08014426;5.40977955;2024-03-17T03:10:05;9.40;90.70
6536;DHT22;77310;52.08014426;5.40977955;2024-03-17T03:12:32;9.40;90.80
6536;DHT22;77310;52.08014426;5.40977955;2024-03-17T03:15:00;9.40;90.80
6536;DHT22;77310;52.08014426;5.40977955;2024-03-17T03:17:28;9.40;90.80
6536;DHT22;77310;52.08014426;5.40977955;2024-03-17T03:19:55;9.40;90.80
6536;DHT22;77310;52.08014426;5.40977955;2024-03-17T03:22:23;9.40;90.80
6536;DHT22;77310;52.08014426;5.40977955;2024-03-17T03:24:52;9.50;91.00
6536;DHT22;77310;52.08014426;5.40977955;2024-03-17T03:27:19;9.40;91.10
6536;DHT22;77310;52.08014426;5.40977955;2024-03-17T03:29:45;9.40;91.00
6536;DHT22;77310;52.08014426;5.40977955;2024-03-17T03:32:14;9.90;91.40
6536;DHT22;77310;52.08014426;5.40977955;2024-03-17T03:34:41;9.50;91.50
6536;DHT22;77310;52.08014426;5.40977955;2024-03-17T03:37:09;9.50;91.50
6536;DHT22;77310;52.08014426;5.40977955;2024-03-17T03:39:36;9.50;91.50
6536;DHT22;77310;52.08014426;5.40977955;2024-03-17T03:42:03;9.60;91.50
6536;DHT22;77310;52.08014426;5.40977955;2024-03-17T03:44:30;9.60;91.40
6536;DHT22;77310;52.08014426;5.40977955;2024-03-17T03:46:58;9.70;91.40
6536;DHT22;77310;52.08014426;5.40977955;2024-03-17T03:49:28;9.70;91.40
6536;DHT22;77310;52.08014426;5.40977955;2024-03-17T03:51:56;9.70;91.40
6536;DHT22;77310;52.08014426;5.40977955;2024-03-17T03:54:23;9.70;91.20
6536;DHT22;77310;52.08014426;5.40977955;2024-03-17T03:56:50;9.70;91.30
6536;DHT22;77310;52.08014426;5.40977955;2024-03-17T03:59:17;9.70;91.20
6536;DHT22;77310;52.08014426;5.40977955;2024-03-17T04:01:44;10.70;91.10
6536;DHT22;77310;52.08014426;5.40977955;2024-03-17T04:04:13;9.70;91.20
6536;DHT22;77310;52.08014426;5.40977955;2024-03-17T04:06:41;9.70;91.30
6536;DHT22;77310;52.08014426;5.40977955;2024-03-17T04:09:08;9.70;91.40
6536;DHT22;77310;52.08014426;5.40977955;2024-03-17T04:11:36;9.70;91.30
6536;DHT22;77310;52.08014426;5.40977955;2024-03-17T04:14:03;9.80;91.50
6536;DHT22;77310;52.08014426;5.40977955;2024-03-17T04:16:30;9.80;91.50
6536;DHT22;77310;52.08014426;5.40977955;2024-03-17T04:18:58;9.80;91.50
6536;DHT22;77310;52.08014426;5.40977955;2024-03-17T04:21:25;9.80;91.40
6536;DHT22;77310;52.08014426;5.40977955;2024-03-17T04:23:53;10.50;91.30
6536;DHT22;77310;52.08014426;5.40977955;2024-03-17T04:26:20;9.80;91.50
6536;DHT22;77310;52.08014426;5.40977955;2024-03-17T04:28:47;9.80;91.30
6536;DHT22;77310;52.08014426;5.40977955;2024-03-17T04:31:14;10.10;91.00
6536;DHT22;77310;52.08014426;5.40977955;2024-03-17T04:33:41;10.30;91.10
6536;DHT22;77310;52.08014426;5.40977955;2024-03-17T04:36:08;9.80;91.40
6536;DHT22;77310;52.08014426;5.40977955;2024-03-17T04:38:35;9.90;91.40
6536;DHT22;77310;52.08014426;5.40977955;2024-03-17T04:41:04;9.90;91.30
6536;DHT22;77310;52.08014426;5.40977955;2024-03-17T04:43:33;9.90;91.30
6536;DHT22;77310;52.08014426;5.40977955;2024-03-17T04:46:04;9.90;91.20
6536;DHT22;77310;52.08014426;5.40977955;2024-03-17T04:48:33;9.80;91.30
6536;DHT22;77310;52.08014426;5.40977955;2024-03-17T04:51:00;9.80;91.20
6536;DHT22;77310;52.08014426;5.40977955;2024-03-17T04:53:27;9.80;91.20
6536;DHT22;77310;52.08014426;5.40977955;2024-03-17T04:56:01;9.90;91.30
6536;DHT22;77310;52.08014426;5.40977955;2024-03-17T04:58:32;9.90;91.50
6536;DHT22;77310;52.08014426;5.40977955;2024-03-17T05:01:04;9.80;91.30
6536;DHT22;77310;52.08014426;5.40977955;2024-03-17T05:03:32;9.80;91.50
6536;DHT22;77310;52.08014426;5.40977955;2024-03-17T05:05:59;9.80;91.40
6536;DHT22;77310;52.08014426;5.40977955;2024-03-17T05:08:30;9.80;91.50
6536;DHT22;77310;52.08014426;5.40977955;2024-03-17T05:10:58;9.80;91.50
6536;DHT22;77310;52.08014426;5.40977955;2024-03-17T05:13:26;9.80;91.60
6536;DHT22;77310;52.08014426;5.40977955;2024-03-17T05:15:54;9.80;91.60
6536;DHT22;77310;52.08014426;5.40977955;2024-03-17T05:18:21;9.80;91.60
6536;DHT22;77310;52.08014426;5.40977955;2024-03-17T05:20:57;9.80;91.60
6536;DHT22;77310;52.08014426;5.40977955;2024-03-17T05:23:26;9.80;91.50
6536;DHT22;77310;52.08014426;5.40977955;2024-03-17T05:25:54;9.80;91.60
6536;DHT22;77310;52.08014426;5.40977955;2024-03-17T05:28:21;9.80;91.60
6536;DHT22;77310;52.08014426;5.40977955;2024-03-17T05:30:48;11.20;91.70
6536;DHT22;77310;52.08014426;5.40977955;2024-03-17T05:33:18;9.80;91.60
6536;DHT22;77310;52.08014426;5.40977955;2024-03-17T05:35:50;9.80;91.60
6536;DHT22;77310;52.08014426;5.40977955;2024-03-17T05:38:21;9.40;91.50
6536;DHT22;77310;52.08014426;5.40977955;2024-03-17T05:40:54;10.10;91.40
6536;DHT22;77310;52.08014426;5.40977955;2024-03-17T05:43:21;9.70;91.70
6536;DHT22;77310;52.08014426;5.40977955;2024-03-17T05:45:50;9.70;91.60
6536;DHT22;77310;52.08014426;5.40977955;2024-03-17T05:48:18;9.70;91.70
6536;DHT22;77310;52.08014426;5.40977955;2024-03-17T05:50:45;9.70;91.70
6536;DHT22;77310;52.08014426;5.40977955;2024-03-17T05:53:12;9.70;91.70
6536;DHT22;77310;52.08014426;5.40977955;2024-03-17T05:55:39;9.70;91.70
6536;DHT22;77310;52.08014426;5.40977955;2024-03-17T05:58:08;9.70;91.80
6536;DHT22;77310;52.08014426;5.40977955;2024-03-17T06:00:36;9.70;91.80
6536;DHT22;77310;52.08014426;5.40977955;2024-03-17T06:03:04;9.70;91.80
6536;DHT22;77310;52.08014426;5.40977955;2024-03-17T06:05:33;9.70;91.80
6536;DHT22;77310;52.08014426;5.40977955;2024-03-17T06:08:00;9.70;91.90
6536;DHT22;77310;52.08014426;5.40977955;2024-03-17T06:10:28;9.70;91.80
6536;DHT22;77310;52.08014426;5.40977955;2024-03-17T06:12:56;9.70;91.90
6536;DHT22;77310;52.08014426;5.40977955;2024-03-17T06:15:23;9.70;91.90
6536;DHT22;77310;52.08014426;5.40977955;2024-03-17T06:17:51;9.70;92.00
6536;DHT22;77310;52.08014426;5.40977955;2024-03-17T06:20:19;9.70;92.10
6536;DHT22;77310;52.08014426;5.40977955;2024-03-17T06:22:48;9.70;92.10
6536;DHT22;77310;52.08014426;5.40977955;2024-03-17T06:25:15;9.70;92.10
6536;DHT22;77310;52.08014426;5.40977955;2024-03-17T06:27:42;9.80;92.10
6536;DHT22;77310;52.08014426;5.40977955;2024-03-17T06:30:12;9.80;92.20
6536;DHT22;77310;52.08014426;5.40977955;2024-03-17T06:32:40;9.80;92.20
6536;DHT22;77310;52.08014426;5.40977955;2024-03-17T06:35:08;9.80;92.10
6536;DHT22;77310;52.08014426;5.40977955;2024-03-17T06:37:35;9.80;92.20
6536;DHT22;77310;52.08014426;5.40977955;2024-03-17T06:40:04;9.90;92.10
6536;DHT22;77310;52.08014426;5.40977955;2024-03-17T06:42:32;9.90;92.20
6536;DHT22;77310;52.08014426;5.40977955;2024-03-17T06:44:59;9.90;92.10
6536;DHT22;77310;52.08014426;5.40977955;2024-03-17T06:47:26;9.90;92.10
6536;DHT22;77310;52.08014426;5.40977955;2024-03-17T06:49:53;9.90;92.20
6536;DHT22;77310;52.08014426;5.40977955;2024-03-17T06:52:21;10.00;91.70
6536;DHT22;77310;52.08014426;5.40977955;2024-03-17T06:54:48;10.00;91.70
6536;DHT22;77310;52.08014426;5.40977955;2024-03-17T06:57:17;10.00;91.80
6536;DHT22;77310;52.08014426;5.40977955;2024-03-17T06:59:44;10.00;91.60
6536;DHT22;77310;52.08014426;5.40977955;2024-03-17T07:02:14;10.10;91.90
6536;DHT22;77310;52.08014426;5.40977955;2024-03-17T07:04:43;10.10;91.90
6536;DHT22;77310;52.08014426;5.40977955;2024-03-17T07:07:10;10.10;91.90
6536;DHT22;77310;52.08014426;5.40977955;2024-03-17T07:09:37;10.20;92.00
6536;DHT22;77310;52.08014426;5.40977955;2024-03-17T07:12:06;10.20;92.00
6536;DHT22;77310;52.08014426;5.40977955;2024-03-17T07:14:34;10.30;92.10
6536;DHT22;77310;52.08014426;5.40977955;2024-03-17T07:17:01;11.70;92.70
6536;DHT22;77310;52.08014426;5.40977955;2024-03-17T07:19:28;10.30;92.00
6536;DHT22;77310;52.08014426;5.40977955;2024-03-17T07:21:56;10.40;92.20
6536;DHT22;77310;52.08014426;5.40977955;2024-03-17T07:24:23;10.50;92.10
6536;DHT22;77310;52.08014426;5.40977955;2024-03-17T07:26:50;10.60;92.50
6536;DHT22;77310;52.08014426;5.40977955;2024-03-17T07:29:17;10.60;92.20
6536;DHT22;77310;52.08014426;5.40977955;2024-03-17T07:31:47;10.30;91.80
6536;DHT22;77310;52.08014426;5.40977955;2024-03-17T07:34:14;10.80;92.00
6536;DHT22;77310;52.08014426;5.40977955;2024-03-17T07:36:41;10.90;91.90
6536;DHT22;77310;52.08014426;5.40977955;2024-03-17T07:39:08;10.90;91.90
6536;DHT22;77310;52.08014426;5.40977955;2024-03-17T07:41:35;11.00;91.70
6536;DHT22;77310;52.08014426;5.40977955;2024-03-17T07:44:02;11.10;91.60
6536;DHT22;77310;52.08014426;5.40977955;2024-03-17T07:46:29;11.10;91.50
6536;DHT22;77310;52.08014426;5.40977955;2024-03-17T07:48:58;11.20;91.50
6536;DHT22;77310;52.08014426;5.40977955;2024-03-17T07:51:25;11.30;91.50
6536;DHT22;77310;52.08014426;5.40977955;2024-03-17T07:53:52;11.30;91.40
6536;DHT22;77310;52.08014426;5.40977955;2024-03-17T07:56:19;11.40;91.40
6536;DHT22;77310;52.08014426;5.40977955;2024-03-17T07:58:46;11.50;91.30
6536;DHT22;77310;52.08014426;5.40977955;2024-03-17T08:01:16;11.60;91.40
6536;DHT22;77310;52.08014426;5.40977955;2024-03-17T08:03:46;11.60;91.40
6536;DHT22;77310;52.08014426;5.40977955;2024-03-17T08:06:16;11.70;91.50
6536;DHT22;77310;52.08014426;5.40977955;2024-03-17T08:08:43;11.80;91.40
6536;DHT22;77310;52.08014426;5.40977955;2024-03-17T08:11:10;11.90;91.40
6536;DHT22;77310;52.08014426;5.40977955;2024-03-17T08:13:37;11.90;91.10
6536;DHT22;77310;52.08014426;5.40977955;2024-03-17T08:16:06;12.00;91.00
6536;DHT22;77310;52.08014426;5.40977955;2024-03-17T08:18:34;12.00;90.90
6536;DHT22;77310;52.08014426;5.40977955;2024-03-17T08:21:02;12.10;90.80
6536;DHT22;77310;52.08014426;5.40977955;2024-03-17T08:23:33;12.20;90.70
6536;DHT22;77310;52.08014426;5.40977955;2024-03-17T08:26:03;12.20;90.60
6536;DHT22;77310;52.08014426;5.40977955;2024-03-17T08:28:30;12.30;90.60
6536;DHT22;77310;52.08014426;5.40977955;2024-03-17T08:31:01;12.30;90.40
6536;DHT22;77310;52.08014426;5.40977955;2024-03-17T08:33:29;12.40;90.50
6536;DHT22;77310;52.08014426;5.40977955;2024-03-17T08:35:57;12.40;90.40
6536;DHT22;77310;52.08014426;5.40977955;2024-03-17T08:38:25;12.40;90.20
6536;DHT22;77310;52.08014426;5.40977955;2024-03-17T08:40:56;12.50;90.30
6536;DHT22;77310;52.08014426;5.40977955;2024-03-17T08:43:23;12.50;90.20
6536;DHT22;77310;52.08014426;5.40977955;2024-03-17T08:45:57;12.50;90.20
6536;DHT22;77310;52.08014426;5.40977955;2024-03-17T08:48:27;12.60;90.30
6536;DHT22;77310;52.08014426;5.40977955;2024-03-17T08:50:57;12.60;90.40
6536;DHT22;77310;52.08014426;5.40977955;2024-03-17T08:53:24;12.60;90.30
6536;DHT22;77310;52.08014426;5.40977955;2024-03-17T08:55:52;12.70;90.40
6536;DHT22;77310;52.08014426;5.40977955;2024-03-17T08:58:20;12.70;90.40
6536;DHT22;77310;52.08014426;5.40977955;2024-03-17T09:00:47;12.70;90.30
6536;DHT22;77310;52.08014426;5.40977955;2024-03-17T09:03:15;12.80;90.30
6536;DHT22;77310;52.08014426;5.40977955;2024-03-17T09:05:43;12.90;90.20
6536;DHT22;77310;52.08014426;5.40977955;2024-03-17T09:08:16;12.90;90.10
6536;DHT22;77310;52.08014426;5.40977955;2024-03-17T09:10:44;12.90;90.00
6536;DHT22;77310;52.08014426;5.40977955;2024-03-17T09:13:13;13.00;90.10
6536;DHT22;77310;52.08014426;5.40977955;2024-03-17T09:15:49;13.00;90.00
6536;DHT22;77310;52.08014426;5.40977955;2024-03-17T09:18:17;13.10;90.00
6536;DHT22;77310;52.08014426;5.40977955;2024-03-17T09:20:44;13.10;90.00
6536;DHT22;77310;52.08014426;5.40977955;2024-03-17T09:23:11;13.20;89.80
6536;DHT22;77310;52.08014426;5.40977955;2024-03-17T09:25:38;13.30;89.80
6536;DHT22;77310;52.08014426;5.40977955;2024-03-17T09:28:05;13.30;89.60
6536;DHT22;77310;52.08014426;5.40977955;2024-03-17T09:30:32;13.40;89.40
6536;DHT22;77310;52.08014426;5.40977955;2024-03-17T09:33:01;13.40;89.40
6536;DHT22;77310;52.08014426;5.40977955;2024-03-17T09:35:30;13.50;89.00
6536;DHT22;77310;52.08014426;5.40977955;2024-03-17T09:38:00;13.60;89.00
6536;DHT22;77310;52.08014426;5.40977955;2024-03-17T09:40:27;13.60;88.50
6536;DHT22;77310;52.08014426;5.40977955;2024-03-17T09:42:55;13.60;88.80
6536;DHT22;77310;52.08014426;5.40977955;2024-03-17T09:45:24;13.70;88.40
6536;DHT22;77310;52.08014426;5.40977955;2024-03-17T09:47:54;13.70;88.90
6536;DHT22;77310;52.08014426;5.40977955;2024-03-17T09:50:23;13.80;89.00
6536;DHT22;77310;52.08014426;5.40977955;2024-03-17T09:52:51;13.90;89.20
6536;DHT22;77310;52.08014426;5.40977955;2024-03-17T09:55:21;13.90;88.80
6536;DHT22;77310;52.08014426;5.40977955;2024-03-17T09:57:50;14.00;88.50
6536;DHT22;77310;52.08014426;5.40977955;2024-03-17T10:00:17;14.10;88.50
6536;DHT22;77310;52.08014426;5.40977955;2024-03-17T10:02:44;14.20;88.50
6536;DHT22;77310;52.08014426;5.40977955;2024-03-17T10:05:18;14.20;88.30
6536;DHT22;77310;52.08014426;5.40977955;2024-03-17T10:07:47;14.30;88.20
6536;DHT22;77310;52.08014426;5.40977955;2024-03-17T10:10:14;14.40;88.70
6536;DHT22;77310;52.08014426;5.40977955;2024-03-17T10:12:42;14.50;88.50
6536;DHT22;77310;52.08014426;5.40977955;2024-03-17T10:15:11;14.60;88.10
6536;DHT22;77310;52.08014426;5.40977955;2024-03-17T10:17:38;14.60;87.80
6536;DHT22;77310;52.08014426;5.40977955;2024-03-17T10:20:12;14.70;87.80
6536;DHT22;77310;52.08014426;5.40977955;2024-03-17T10:23:01;14.80;87.80
6536;DHT22;77310;52.08014426;5.40977955;2024-03-17T10:25:29;14.90;87.80
6536;DHT22;77310;52.08014426;5.40977955;2024-03-17T10:27:56;14.90;87.70
6536;DHT22;77310;52.08014426;5.40977955;2024-03-17T10:30:24;15.00;87.10
6536;DHT22;77310;52.08014426;5.40977955;2024-03-17T10:32:55;15.00;86.80
6536;DHT22;77310;52.08014426;5.40977955;2024-03-17T10:35:31;15.10;87.00
6536;DHT22;77310;52.08014426;5.40977955;2024-03-17T10:38:00;15.10;86.80
6536;DHT22;77310;52.08014426;5.40977955;2024-03-17T10:40:28;15.20;86.70
6536;DHT22;77310;52.08014426;5.40977955;2024-03-17T10:43:00;15.20;86.50
6536;DHT22;77310;52.08014426;5.40977955;2024-03-17T10:45:28;15.60;86.80
6536;DHT22;77310;52.08014426;5.40977955;2024-03-17T10:47:59;15.40;86.20
6536;DHT22;77310;52.08014426;5.40977955;2024-03-17T10:50:30;15.40;85.50
6536;DHT22;77310;52.08014426;5.40977955;2024-03-17T10:53:02;15.50;85.90
6536;DHT22;77310;52.08014426;5.40977955;2024-03-17T10:55:32;15.60;85.90
6536;DHT22;77310;52.08014426;5.40977955;2024-03-17T10:58:03;15.70;85.70
6536;DHT22;77310;52.08014426;5.40977955;2024-03-17T11:00:31;15.70;85.80
6536;DHT22;77310;52.08014426;5.40977955;2024-03-17T11:02:58;15.80;85.80
6536;DHT22;77310;52.08014426;5.40977955;2024-03-17T11:05:26;15.90;86.00
6536;DHT22;77310;52.08014426;5.40977955;2024-03-17T11:08:00;16.00;85.40
6536;DHT22;77310;52.08014426;5.40977955;2024-03-17T11:10:29;16.20;85.00
6536;DHT22;77310;52.08014426;5.40977955;2024-03-17T11:12:59;16.20;84.30
6536;DHT22;77310;52.08014426;5.40977955;2024-03-17T11:15:37;16.30;84.20
6536;DHT22;77310;52.08014426;5.40977955;2024-03-17T11:18:28;16.40;83.60
6536;DHT22;77310;52.08014426;5.40977955;2024-03-17T11:20:57;16.50;82.90
6536;DHT22;77310;52.08014426;5.40977955;2024-03-17T11:23:30;16.50;83.00
6536;DHT22;77310;52.08014426;5.40977955;2024-03-17T11:26:00;16.50;83.40
6536;DHT22;77310;52.08014426;5.40977955;2024-03-17T11:28:51;16.60;83.00
6536;DHT22;77310;52.08014426;5.40977955;2024-03-17T11:31:39;16.70;83.00
6536;DHT22;77310;52.08014426;5.40977955;2024-03-17T11:34:32;16.70;82.40
6536;DHT22;77310;52.08014426;5.40977955;2024-03-17T11:37:00;16.70;82.70
6536;DHT22;77310;52.08014426;5.40977955;2024-03-17T11:39:50;16.70;82.20
6536;DHT22;77310;52.08014426;5.40977955;2024-03-17T11:42:17;16.80;81.80
6536;DHT22;77310;52.08014426;5.40977955;2024-03-17T11:44:57;16.80;82.00
6536;DHT22;77310;52.08014426;5.40977955;2024-03-17T11:47:34;16.80;81.40
6536;DHT22;77310;52.08014426;5.40977955;2024-03-17T11:50:03;16.80;81.40
6536;DHT22;77310;52.08014426;5.40977955;2024-03-17T11:52:30;16.70;81.30
6536;DHT22;77310;52.08014426;5.40977955;2024-03-17T11:54:58;16.70;82.10
6536;DHT22;77310;52.08014426;5.40977955;2024-03-17T11:57:26;16.70;80.70
6536;DHT22;77310;52.08014426;5.40977955;2024-03-17T11:59:53;16.60;80.40
6536;DHT22;77310;52.08014426;5.40977955;2024-03-17T12:02:26;16.60;80.60
6536;DHT22;77310;52.08014426;5.40977955;2024-03-17T12:04:53;16.50;80.40
6536;DHT22;77310;52.08014426;5.40977955;2024-03-17T12:07:21;16.50;80.80
6536;DHT22;77310;52.08014426;5.40977955;2024-03-17T12:09:49;16.40;81.10
6536;DHT22;77310;52.08014426;5.40977955;2024-03-17T12:12:21;16.30;81.30
6536;DHT22;77310;52.08014426;5.40977955;2024-03-17T12:14:48;16.30;81.60
6536;DHT22;77310;52.08014426;5.40977955;2024-03-17T12:17:22;16.30;81.60
6536;DHT22;77310;52.08014426;5.40977955;2024-03-17T12:19:48;16.30;81.90
6536;DHT22;77310;52.08014426;5.40977955;2024-03-17T12:22:17;16.30;81.80
6536;DHT22;77310;52.08014426;5.40977955;2024-03-17T12:24:44;16.20;81.90
6536;DHT22;77310;52.08014426;5.40977955;2024-03-17T12:27:20;16.20;82.30
6536;DHT22;77310;52.08014426;5.40977955;2024-03-17T12:29:48;16.20;82.30
6536;DHT22;77310;52.08014426;5.40977955;2024-03-17T12:32:16;16.30;82.60
6536;DHT22;77310;52.08014426;5.40977955;2024-03-17T12:34:42;16.30;82.70
6536;DHT22;77310;52.08014426;5.40977955;2024-03-17T12:37:16;16.30;82.80
6536;DHT22;77310;52.08014426;5.40977955;2024-03-17T12:39:43;16.30;82.70
6536;DHT22;77310;52.08014426;5.40977955;2024-03-17T12:42:11;16.30;82.60
6536;DHT22;77310;52.08014426;5.40977955;2024-03-17T12:44:47;16.40;82.20
6536;DHT22;77310;52.08014426;5.40977955;2024-03-17T12:47:15;16.40;81.70
6536;DHT22;77310;52.08014426;5.40977955;2024-03-17T12:49:45;16.40;81.90
6536;DHT22;77310;52.08014426;5.40977955;2024-03-17T12:52:18;16.40;82.00
6536;DHT22;77310;52.08014426;5.40977955;2024-03-17T12:54:45;16.40;81.80
6536;DHT22;77310;52.08014426;5.40977955;2024-03-17T12:57:42;16.40;82.60
6536;DHT22;77310;52.08014426;5.40977955;2024-03-17T13:00:29;16.50;82.30
6536;DHT22;77310;52.08014426;5.40977955;2024-03-17T13:02:59;16.50;82.00
6536;DHT22;77310;52.08014426;5.40977955;2024-03-17T13:05:27;16.50;82.40
6536;DHT22;77310;52.08014426;5.40977955;2024-03-17T13:07:54;16.50;82.40
6536;DHT22;77310;52.08014426;5.40977955;2024-03-17T13:10:23;16.60;82.40
6536;DHT22;77310;52.08014426;5.40977955;2024-03-17T13:12:58;16.60;82.30
6536;DHT22;77310;52.08014426;5.40977955;2024-03-17T13:15:27;16.60;82.30
6536;DHT22;77310;52.08014426;5.40977955;2024-03-17T13:17:56;16.60;82.10
6536;DHT22;77310;52.08014426;5.40977955;2024-03-17T13:20:24;16.70;82.40
6536;DHT22;77310;52.08014426;5.40977955;2024-03-17T13:22:52;16.70;82.40
6536;DHT22;77310;52.08014426;5.40977955;2024-03-17T13:25:20;16.70;82.70
6536;DHT22;77310;52.08014426;5.40977955;2024-03-17T13:27:49;16.70;82.60
6536;DHT22;77310;52.08014426;5.40977955;2024-03-17T13:30:17;16.80;82.50
6536;DHT22;77310;52.08014426;5.40977955;2024-03-17T13:32:46;16.80;82.10
6536;DHT22;77310;52.08014426;5.40977955;2024-03-17T13:35:15;16.80;81.70
6536;DHT22;77310;52.08014426;5.40977955;2024-03-17T13:37:43;16.90;82.60
6536;DHT22;77310;52.08014426;5.40977955;2024-03-17T13:40:11;16.90;82.40
6536;DHT22;77310;52.08014426;5.40977955;2024-03-17T13:42:42;16.90;81.70
6536;DHT22;77310;52.08014426;5.40977955;2024-03-17T13:45:11;17.00;81.60
6536;DHT22;77310;52.08014426;5.40977955;2024-03-17T13:47:39;17.00;81.30